Rechercher aéroport 
image banner adimage banner adimage banner ad
image banner ad

CA04 - Flying N Ranch

Situé à Cottonwood, United States

ICAO - CA04, IATA -

Données fournies par Airmate  

Information générale

Coordonnées: N40°20'47" W122°20'20"
Élévation : 530 feet MSL.
Variation magnétique : 17° East
Voir autres Aéroports à California

Données opérationnelles

Special qualification required
Heure actuelle UTC:
Heure actuelle locale:
Météo à : KRDD - Redding Muni ( 18 km )
METAR: KRDD 251153Z AUTO 00000KT 10SM FU CLR 21/09 A2987 RMK AO2 SLP107 T02110094 10250 20206 50001
TAF: KRDD 251120Z 2512/2612 VRB03KT P6SM SCT250 FM252200 18009KT P6SM SCT150 BKN250
Voir NOTAMs / SUP AIP / TFR affectant cet aéroport [VIEW]
Fréquences de communication: [VIEW]

Pistes:

Identifiant RWYQFULongueur (ft)Largeur (ft)SurfaceLDA (ft)
162600150GRASS
342600150GRASS

Coordonnées de l'aéroport

Adresse: Cottonwood United States

Vue satellite de CA04